sensor_id;sensor_type;location;lat;lon;timestamp;P1;durP1;ratioP1;P2;durP2;ratioP2
75682;SDS011;64295;44.772;39.872;2022-11-13T00:01:10;63.58;;;17.25;;
75682;SDS011;64295;44.772;39.872;2022-11-13T00:03:57;71.50;;;17.77;;
75682;SDS011;64295;44.772;39.872;2022-11-13T00:06:42;78.30;;;19.67;;
75682;SDS011;64295;44.772;39.872;2022-11-13T00:09:26;62.28;;;17.95;;
75682;SDS011;64295;44.772;39.872;2022-11-13T00:12:11;73.00;;;17.48;;
75682;SDS011;64295;44.772;39.872;2022-11-13T00:14:55;85.00;;;22.75;;
75682;SDS011;64295;44.772;39.872;2022-11-13T00:17:40;74.93;;;16.48;;
75682;SDS011;64295;44.772;39.872;2022-11-13T00:20:24;78.15;;;19.60;;
75682;SDS011;64295;44.772;39.872;2022-11-13T00:23:09;72.00;;;16.63;;
75682;SDS011;64295;44.772;39.872;2022-11-13T00:25:53;70.93;;;17.63;;
75682;SDS011;64295;44.772;39.872;2022-11-13T00:28:38;82.03;;;19.48;;
75682;SDS011;64295;44.772;39.872;2022-11-13T00:31:23;72.70;;;17.65;;
75682;SDS011;64295;44.772;39.872;2022-11-13T00:34:08;78.00;;;18.25;;
75682;SDS011;64295;44.772;39.872;2022-11-13T00:36:53;62.45;;;17.50;;
75682;SDS011;64295;44.772;39.872;2022-11-13T00:39:38;80.45;;;18.67;;
75682;SDS011;64295;44.772;39.872;2022-11-13T00:42:22;67.78;;;17.23;;
75682;SDS011;64295;44.772;39.872;2022-11-13T00:45:06;67.30;;;18.50;;
75682;SDS011;64295;44.772;39.872;2022-11-13T00:47:51;75.43;;;18.55;;
75682;SDS011;64295;44.772;39.872;2022-11-13T00:50:36;78.57;;;21.08;;
75682;SDS011;64295;44.772;39.872;2022-11-13T00:53:20;81.55;;;17.73;;
75682;SDS011;64295;44.772;39.872;2022-11-13T00:56:05;95.00;;;23.58;;
75682;SDS011;64295;44.772;39.872;2022-11-13T00:58:49;85.18;;;21.73;;
75682;SDS011;64295;44.772;39.872;2022-11-13T01:01:34;66.57;;;17.02;;
75682;SDS011;64295;44.772;39.872;2022-11-13T01:04:19;75.50;;;19.90;;
75682;SDS011;64295;44.772;39.872;2022-11-13T01:07:04;71.40;;;17.85;;
75682;SDS011;64295;44.772;39.872;2022-11-13T01:09:49;72.05;;;19.00;;
75682;SDS011;64295;44.772;39.872;2022-11-13T01:12:34;69.75;;;17.50;;
75682;SDS011;64295;44.772;39.872;2022-11-13T01:15:18;64.03;;;15.73;;
75682;SDS011;64295;44.772;39.872;2022-11-13T01:18:03;55.28;;;16.42;;
75682;SDS011;64295;44.772;39.872;2022-11-13T01:20:47;49.47;;;14.65;;
75682;SDS011;64295;44.772;39.872;2022-11-13T01:23:32;54.90;;;15.98;;
75682;SDS011;64295;44.772;39.872;2022-11-13T01:26:18;61.53;;;13.50;;
75682;SDS011;64295;44.772;39.872;2022-11-13T01:29:09;49.00;;;14.38;;
75682;SDS011;64295;44.772;39.872;2022-11-13T01:31:55;50.97;;;15.15;;
75682;SDS011;64295;44.772;39.872;2022-11-13T01:34:39;47.63;;;13.95;;
75682;SDS011;64295;44.772;39.872;2022-11-13T01:37:24;44.13;;;13.85;;
75682;SDS011;64295;44.772;39.872;2022-11-13T01:40:09;45.90;;;13.40;;
75682;SDS011;64295;44.772;39.872;2022-11-13T01:42:55;51.92;;;15.25;;
75682;SDS011;64295;44.772;39.872;2022-11-13T01:48:44;46.35;;;16.67;;
75682;SDS011;64295;44.772;39.872;2022-11-13T01:51:34;52.17;;;19.73;;
75682;SDS011;64295;44.772;39.872;2022-11-13T01:54:23;45.13;;;16.67;;
75682;SDS011;64295;44.772;39.872;2022-11-13T01:57:10;49.58;;;17.38;;
75682;SDS011;64295;44.772;39.872;2022-11-13T01:59:57;57.70;;;18.95;;
75682;SDS011;64295;44.772;39.872;2022-11-13T02:02:47;54.95;;;17.67;;
75682;SDS011;64295;44.772;39.872;2022-11-13T02:05:31;47.42;;;15.50;;
75682;SDS011;64295;44.772;39.872;2022-11-13T02:08:16;49.33;;;15.80;;
75682;SDS011;64295;44.772;39.872;2022-11-13T02:11:00;59.08;;;18.55;;
75682;SDS011;64295;44.772;39.872;2022-11-13T02:13:45;59.00;;;17.35;;
75682;SDS011;64295;44.772;39.872;2022-11-13T02:16:31;60.15;;;18.02;;
75682;SDS011;64295;44.772;39.872;2022-11-13T02:19:29;65.25;;;18.45;;
75682;SDS011;64295;44.772;39.872;2022-11-13T02:22:17;58.03;;;16.52;;
75682;SDS011;64295;44.772;39.872;2022-11-13T02:25:16;62.80;;;18.70;;
75682;SDS011;64295;44.772;39.872;2022-11-13T02:28:02;53.25;;;17.35;;
75682;SDS011;64295;44.772;39.872;2022-11-13T02:30:46;64.65;;;17.38;;
75682;SDS011;64295;44.772;39.872;2022-11-13T02:33:31;68.40;;;19.90;;
75682;SDS011;64295;44.772;39.872;2022-11-13T02:36:16;68.22;;;20.23;;
75682;SDS011;64295;44.772;39.872;2022-11-13T02:39:05;50.53;;;16.48;;
75682;SDS011;64295;44.772;39.872;2022-11-13T02:44:36;67.40;;;19.13;;
75682;SDS011;64295;44.772;39.872;2022-11-13T02:47:20;78.30;;;18.92;;
75682;SDS011;64295;44.772;39.872;2022-11-13T02:50:05;58.08;;;16.33;;
75682;SDS011;64295;44.772;39.872;2022-11-13T02:52:50;74.60;;;20.50;;
75682;SDS011;64295;44.772;39.872;2022-11-13T02:55:35;85.05;;;23.40;;
75682;SDS011;64295;44.772;39.872;2022-11-13T02:58:19;74.22;;;20.30;;
75682;SDS011;64295;44.772;39.872;2022-11-13T03:01:04;68.15;;;17.90;;
75682;SDS011;64295;44.772;39.872;2022-11-13T03:03:48;65.28;;;16.17;;
75682;SDS011;64295;44.772;39.872;2022-11-13T03:06:32;95.85;;;21.52;;
75682;SDS011;64295;44.772;39.872;2022-11-13T03:09:17;82.32;;;19.33;;
75682;SDS011;64295;44.772;39.872;2022-11-13T03:12:01;75.43;;;18.30;;
75682;SDS011;64295;44.772;39.872;2022-11-13T03:14:46;95.65;;;20.10;;
75682;SDS011;64295;44.772;39.872;2022-11-13T03:17:30;75.63;;;18.92;;
75682;SDS011;64295;44.772;39.872;2022-11-13T03:20:15;87.72;;;21.33;;
75682;SDS011;64295;44.772;39.872;2022-11-13T03:23:00;68.03;;;18.10;;
75682;SDS011;64295;44.772;39.872;2022-11-13T03:25:45;67.85;;;18.35;;
75682;SDS011;64295;44.772;39.872;2022-11-13T03:28:29;101.80;;;22.48;;
75682;SDS011;64295;44.772;39.872;2022-11-13T03:31:14;56.15;;;17.17;;
75682;SDS011;64295;44.772;39.872;2022-11-13T03:33:59;77.45;;;19.98;;
75682;SDS011;64295;44.772;39.872;2022-11-13T03:36:43;85.53;;;19.75;;
75682;SDS011;64295;44.772;39.872;2022-11-13T03:39:28;84.03;;;20.55;;
75682;SDS011;64295;44.772;39.872;2022-11-13T03:42:12;87.10;;;18.92;;
75682;SDS011;64295;44.772;39.872;2022-11-13T03:44:57;77.22;;;18.00;;
75682;SDS011;64295;44.772;39.872;2022-11-13T03:47:41;60.00;;;15.45;;
75682;SDS011;64295;44.772;39.872;2022-11-13T03:50:26;55.00;;;13.77;;
75682;SDS011;64295;44.772;39.872;2022-11-13T03:53:10;58.22;;;15.02;;
75682;SDS011;64295;44.772;39.872;2022-11-13T03:55:54;53.33;;;13.90;;
75682;SDS011;64295;44.772;39.872;2022-11-13T03:58:39;62.63;;;14.48;;
75682;SDS011;64295;44.772;39.872;2022-11-13T04:01:23;74.60;;;16.80;;
75682;SDS011;64295;44.772;39.872;2022-11-13T04:04:08;56.50;;;14.70;;
75682;SDS011;64295;44.772;39.872;2022-11-13T04:06:52;56.17;;;13.40;;
75682;SDS011;64295;44.772;39.872;2022-11-13T04:09:36;53.25;;;13.85;;
75682;SDS011;64295;44.772;39.872;2022-11-13T04:12:21;60.78;;;14.70;;
75682;SDS011;64295;44.772;39.872;2022-11-13T04:15:06;61.40;;;14.18;;
75682;SDS011;64295;44.772;39.872;2022-11-13T04:17:50;47.95;;;14.40;;
75682;SDS011;64295;44.772;39.872;2022-11-13T04:20:34;60.38;;;15.30;;
75682;SDS011;64295;44.772;39.872;2022-11-13T04:23:19;54.42;;;13.75;;
75682;SDS011;64295;44.772;39.872;2022-11-13T04:26:04;56.17;;;13.80;;
75682;SDS011;64295;44.772;39.872;2022-11-13T04:28:50;49.13;;;13.15;;
75682;SDS011;64295;44.772;39.872;2022-11-13T04:31:35;66.20;;;17.20;;
75682;SDS011;64295;44.772;39.872;2022-11-13T04:34:19;48.67;;;15.45;;
75682;SDS011;64295;44.772;39.872;2022-11-13T04:37:04;50.63;;;14.07;;
75682;SDS011;64295;44.772;39.872;2022-11-13T04:39:48;44.03;;;13.88;;
75682;SDS011;64295;44.772;39.872;2022-11-13T04:42:33;37.65;;;12.60;;
75682;SDS011;64295;44.772;39.872;2022-11-13T04:45:32;36.08;;;14.65;;
75682;SDS011;64295;44.772;39.872;2022-11-13T04:48:17;45.00;;;13.23;;
75682;SDS011;64295;44.772;39.872;2022-11-13T04:51:02;38.05;;;11.48;;
75682;SDS011;64295;44.772;39.872;2022-11-13T04:53:47;42.35;;;14.20;;
75682;SDS011;64295;44.772;39.872;2022-11-13T04:56:31;37.75;;;12.90;;
75682;SDS011;64295;44.772;39.872;2022-11-13T04:59:16;41.58;;;15.18;;
75682;SDS011;64295;44.772;39.872;2022-11-13T05:02:00;41.63;;;15.77;;
75682;SDS011;64295;44.772;39.872;2022-11-13T05:04:45;42.15;;;13.95;;
75682;SDS011;64295;44.772;39.872;2022-11-13T05:07:29;34.15;;;14.00;;
75682;SDS011;64295;44.772;39.872;2022-11-13T05:10:14;29.35;;;12.10;;
75682;SDS011;64295;44.772;39.872;2022-11-13T05:12:58;32.20;;;11.30;;
75682;SDS011;64295;44.772;39.872;2022-11-13T05:15:43;37.45;;;12.98;;
75682;SDS011;64295;44.772;39.872;2022-11-13T05:18:27;30.55;;;11.52;;
75682;SDS011;64295;44.772;39.872;2022-11-13T05:21:12;28.95;;;10.63;;
75682;SDS011;64295;44.772;39.872;2022-11-13T05:23:56;28.75;;;11.40;;
75682;SDS011;64295;44.772;39.872;2022-11-13T05:26:40;25.38;;;11.48;;
75682;SDS011;64295;44.772;39.872;2022-11-13T05:29:25;23.98;;;10.13;;
75682;SDS011;64295;44.772;39.872;2022-11-13T05:32:09;22.48;;;10.45;;
75682;SDS011;64295;44.772;39.872;2022-11-13T05:34:54;18.33;;;7.85;;
75682;SDS011;64295;44.772;39.872;2022-11-13T05:37:38;36.25;;;15.23;;
75682;SDS011;64295;44.772;39.872;2022-11-13T05:40:23;21.35;;;9.98;;
75682;SDS011;64295;44.772;39.872;2022-11-13T05:43:07;32.58;;;14.60;;
75682;SDS011;64295;44.772;39.872;2022-11-13T05:49:05;22.20;;;9.68;;
75682;SDS011;64295;44.772;39.872;2022-11-13T05:51:50;20.52;;;10.52;;
75682;SDS011;64295;44.772;39.872;2022-11-13T05:54:37;21.58;;;8.98;;
75682;SDS011;64295;44.772;39.872;2022-11-13T05:57:22;28.40;;;12.68;;
75682;SDS011;64295;44.772;39.872;2022-11-13T06:00:06;29.00;;;12.90;;
75682;SDS011;64295;44.772;39.872;2022-11-13T06:02:53;27.48;;;13.52;;
75682;SDS011;64295;44.772;39.872;2022-11-13T06:05:37;25.17;;;12.38;;
75682;SDS011;64295;44.772;39.872;2022-11-13T06:08:22;27.23;;;12.63;;
75682;SDS011;64295;44.772;39.872;2022-11-13T06:11:07;29.88;;;12.85;;
75682;SDS011;64295;44.772;39.872;2022-11-13T06:13:57;28.80;;;12.82;;
75682;SDS011;64295;44.772;39.872;2022-11-13T06:16:42;32.72;;;14.55;;
75682;SDS011;64295;44.772;39.872;2022-11-13T06:19:27;25.65;;;12.05;;
75682;SDS011;64295;44.772;39.872;2022-11-13T06:22:11;22.63;;;11.65;;
75682;SDS011;64295;44.772;39.872;2022-11-13T06:24:55;23.77;;;11.10;;
75682;SDS011;64295;44.772;39.872;2022-11-13T06:27:40;21.55;;;10.27;;
75682;SDS011;64295;44.772;39.872;2022-11-13T06:30:24;22.40;;;11.25;;
75682;SDS011;64295;44.772;39.872;2022-11-13T06:33:09;19.38;;;9.15;;
75682;SDS011;64295;44.772;39.872;2022-11-13T06:35:53;20.13;;;9.70;;
75682;SDS011;64295;44.772;39.872;2022-11-13T06:38:38;19.15;;;8.88;;
75682;SDS011;64295;44.772;39.872;2022-11-13T06:41:25;18.38;;;10.63;;
75682;SDS011;64295;44.772;39.872;2022-11-13T06:44:12;15.93;;;7.20;;
75682;SDS011;64295;44.772;39.872;2022-11-13T06:46:56;18.00;;;8.65;;
75682;SDS011;64295;44.772;39.872;2022-11-13T06:49:40;14.48;;;8.63;;
75682;SDS011;64295;44.772;39.872;2022-11-13T06:52:25;14.18;;;7.65;;
75682;SDS011;64295;44.772;39.872;2022-11-13T06:55:09;12.27;;;6.32;;
75682;SDS011;64295;44.772;39.872;2022-11-13T06:57:54;14.25;;;7.45;;
75682;SDS011;64295;44.772;39.872;2022-11-13T07:00:38;13.55;;;7.30;;
75682;SDS011;64295;44.772;39.872;2022-11-13T07:03:24;9.95;;;5.53;;
75682;SDS011;64295;44.772;39.872;2022-11-13T07:06:17;11.63;;;7.18;;
75682;SDS011;64295;44.772;39.872;2022-11-13T07:09:03;11.27;;;6.30;;
75682;SDS011;64295;44.772;39.872;2022-11-13T07:11:47;10.25;;;5.40;;
75682;SDS011;64295;44.772;39.872;2022-11-13T07:14:32;9.07;;;5.47;;
75682;SDS011;64295;44.772;39.872;2022-11-13T07:17:16;7.95;;;5.25;;
75682;SDS011;64295;44.772;39.872;2022-11-13T07:20:01;7.32;;;3.83;;
75682;SDS011;64295;44.772;39.872;2022-11-13T07:22:45;8.63;;;4.40;;
75682;SDS011;64295;44.772;39.872;2022-11-13T07:25:30;7.47;;;3.90;;
75682;SDS011;64295;44.772;39.872;2022-11-13T07:28:15;7.90;;;4.30;;
75682;SDS011;64295;44.772;39.872;2022-11-13T07:31:05;6.75;;;3.72;;
75682;SDS011;64295;44.772;39.872;2022-11-13T07:33:50;6.10;;;3.15;;
75682;SDS011;64295;44.772;39.872;2022-11-13T07:36:35;5.75;;;2.67;;
75682;SDS011;64295;44.772;39.872;2022-11-13T07:39:19;9.02;;;2.63;;
75682;SDS011;64295;44.772;39.872;2022-11-13T07:42:04;5.50;;;3.00;;
75682;SDS011;64295;44.772;39.872;2022-11-13T07:44:48;5.93;;;3.00;;
75682;SDS011;64295;44.772;39.872;2022-11-13T07:47:33;5.32;;;2.78;;
75682;SDS011;64295;44.772;39.872;2022-11-13T07:50:17;5.32;;;3.35;;
75682;SDS011;64295;44.772;39.872;2022-11-13T07:53:03;6.43;;;3.03;;
75682;SDS011;64295;44.772;39.872;2022-11-13T07:55:48;4.60;;;2.60;;
75682;SDS011;64295;44.772;39.872;2022-11-13T07:58:33;4.85;;;2.35;;
75682;SDS011;64295;44.772;39.872;2022-11-13T08:01:17;5.05;;;2.53;;
75682;SDS011;64295;44.772;39.872;2022-11-13T08:04:02;6.75;;;2.88;;
75682;SDS011;64295;44.772;39.872;2022-11-13T08:06:46;4.53;;;2.08;;
75682;SDS011;64295;44.772;39.872;2022-11-13T08:09:30;6.72;;;2.40;;
75682;SDS011;64295;44.772;39.872;2022-11-13T08:12:15;5.50;;;2.22;;
75682;SDS011;64295;44.772;39.872;2022-11-13T08:14:59;6.25;;;2.50;;
75682;SDS011;64295;44.772;39.872;2022-11-13T08:17:44;4.13;;;1.95;;
75682;SDS011;64295;44.772;39.872;2022-11-13T08:20:36;5.38;;;2.33;;
75682;SDS011;64295;44.772;39.872;2022-11-13T08:23:21;9.02;;;3.58;;
75682;SDS011;64295;44.772;39.872;2022-11-13T08:26:05;3.88;;;1.55;;
75682;SDS011;64295;44.772;39.872;2022-11-13T08:28:50;3.38;;;1.92;;
75682;SDS011;64295;44.772;39.872;2022-11-13T08:31:35;4.28;;;2.10;;
75682;SDS011;64295;44.772;39.872;2022-11-13T08:34:19;5.30;;;2.05;;
75682;SDS011;64295;44.772;39.872;2022-11-13T08:37:04;3.67;;;2.05;;
75682;SDS011;64295;44.772;39.872;2022-11-13T08:39:48;3.28;;;1.95;;
75682;SDS011;64295;44.772;39.872;2022-11-13T08:42:33;2.78;;;1.75;;
75682;SDS011;64295;44.772;39.872;2022-11-13T08:45:17;4.95;;;1.90;;
75682;SDS011;64295;44.772;39.872;2022-11-13T08:48:02;4.28;;;2.15;;
75682;SDS011;64295;44.772;39.872;2022-11-13T08:50:51;3.22;;;2.00;;
75682;SDS011;64295;44.772;39.872;2022-11-13T08:53:37;4.78;;;2.53;;
75682;SDS011;64295;44.772;39.872;2022-11-13T08:56:22;4.25;;;2.10;;
75682;SDS011;64295;44.772;39.872;2022-11-13T08:59:07;4.32;;;2.08;;
75682;SDS011;64295;44.772;39.872;2022-11-13T09:01:52;4.75;;;2.17;;
75682;SDS011;64295;44.772;39.872;2022-11-13T09:04:41;4.38;;;1.92;;
75682;SDS011;64295;44.772;39.872;2022-11-13T09:07:26;4.25;;;1.80;;
75682;SDS011;64295;44.772;39.872;2022-11-13T09:10:10;3.35;;;1.92;;
75682;SDS011;64295;44.772;39.872;2022-11-13T09:12:56;4.55;;;2.33;;
75682;SDS011;64295;44.772;39.872;2022-11-13T09:15:41;3.95;;;2.15;;
75682;SDS011;64295;44.772;39.872;2022-11-13T09:18:27;3.22;;;2.00;;
75682;SDS011;64295;44.772;39.872;2022-11-13T09:21:12;5.40;;;2.78;;
75682;SDS011;64295;44.772;39.872;2022-11-13T09:23:56;5.10;;;1.98;;
75682;SDS011;64295;44.772;39.872;2022-11-13T09:26:41;3.15;;;1.83;;
75682;SDS011;64295;44.772;39.872;2022-11-13T09:29:25;4.15;;;1.92;;
75682;SDS011;64295;44.772;39.872;2022-11-13T09:32:11;2.88;;;1.60;;
75682;SDS011;64295;44.772;39.872;2022-11-13T09:34:55;6.10;;;2.63;;
75682;SDS011;64295;44.772;39.872;2022-11-13T09:37:40;7.18;;;2.10;;
75682;SDS011;64295;44.772;39.872;2022-11-13T09:40:27;3.38;;;1.85;;
75682;SDS011;64295;44.772;39.872;2022-11-13T09:49:39;4.47;;;2.13;;
75682;SDS011;64295;44.772;39.872;2022-11-13T09:52:34;3.40;;;1.67;;
75682;SDS011;64295;44.772;39.872;2022-11-13T09:55:22;3.53;;;1.85;;
75682;SDS011;64295;44.772;39.872;2022-11-13T09:58:44;3.00;;;1.73;;
75682;SDS011;64295;44.772;39.872;2022-11-13T10:13:47;3.65;;;2.30;;
75682;SDS011;64295;44.772;39.872;2022-11-13T10:16:42;3.33;;;1.52;;
75682;SDS011;64295;44.772;39.872;2022-11-13T10:19:40;3.35;;;2.08;;
75682;SDS011;64295;44.772;39.872;2022-11-13T10:22:44;3.80;;;1.80;;
75682;SDS011;64295;44.772;39.872;2022-11-13T10:25:36;3.70;;;1.88;;
75682;SDS011;64295;44.772;39.872;2022-11-13T10:28:22;5.05;;;2.20;;
75682;SDS011;64295;44.772;39.872;2022-11-13T10:31:10;3.95;;;2.33;;
75682;SDS011;64295;44.772;39.872;2022-11-13T10:33:55;4.82;;;2.17;;
75682;SDS011;64295;44.772;39.872;2022-11-13T10:39:40;5.75;;;2.72;;
75682;SDS011;64295;44.772;39.872;2022-11-13T10:42:26;5.15;;;2.85;;
75682;SDS011;64295;44.772;39.872;2022-11-13T10:45:20;3.75;;;2.85;;
75682;SDS011;64295;44.772;39.872;2022-11-13T10:48:17;5.80;;;2.85;;
75682;SDS011;64295;44.772;39.872;2022-11-13T10:51:25;4.00;;;2.17;;
75682;SDS011;64295;44.772;39.872;2022-11-13T10:54:22;5.60;;;2.05;;
75682;SDS011;64295;44.772;39.872;2022-11-13T11:03:07;6.22;;;3.05;;
75682;SDS011;64295;44.772;39.872;2022-11-13T11:05:57;6.05;;;2.50;;
75682;SDS011;64295;44.772;39.872;2022-11-13T11:08:43;6.90;;;3.00;;
75682;SDS011;64295;44.772;39.872;2022-11-13T11:11:27;3.42;;;1.95;;
75682;SDS011;64295;44.772;39.872;2022-11-13T11:14:32;7.03;;;2.78;;
75682;SDS011;64295;44.772;39.872;2022-11-13T11:17:33;4.72;;;2.47;;
75682;SDS011;64295;44.772;39.872;2022-11-13T11:23:18;3.63;;;2.35;;
75682;SDS011;64295;44.772;39.872;2022-11-13T11:26:13;4.97;;;1.80;;
75682;SDS011;64295;44.772;39.872;2022-11-13T11:35:18;4.65;;;2.28;;
75682;SDS011;64295;44.772;39.872;2022-11-13T11:38:38;6.00;;;2.70;;
75682;SDS011;64295;44.772;39.872;2022-11-13T11:41:31;4.32;;;2.58;;
75682;SDS011;64295;44.772;39.872;2022-11-13T11:44:27;5.60;;;2.35;;
75682;SDS011;64295;44.772;39.872;2022-11-13T11:47:18;4.25;;;1.90;;
75682;SDS011;64295;44.772;39.872;2022-11-13T11:50:03;6.68;;;2.47;;
75682;SDS011;64295;44.772;39.872;2022-11-13T11:56:12;4.38;;;2.33;;
75682;SDS011;64295;44.772;39.872;2022-11-13T11:59:21;4.75;;;2.00;;
75682;SDS011;64295;44.772;39.872;2022-11-13T12:05:33;7.13;;;2.30;;
75682;SDS011;64295;44.772;39.872;2022-11-13T12:11:26;3.50;;;1.90;;
75682;SDS011;64295;44.772;39.872;2022-11-13T12:17:20;5.68;;;2.38;;
75682;SDS011;64295;44.772;39.872;2022-11-13T12:20:34;4.22;;;2.97;;
75682;SDS011;64295;44.772;39.872;2022-11-13T12:33:00;3.95;;;2.30;;
75682;SDS011;64295;44.772;39.872;2022-11-13T12:35:49;5.22;;;2.78;;
75682;SDS011;64295;44.772;39.872;2022-11-13T12:38:45;4.68;;;2.03;;
75682;SDS011;64295;44.772;39.872;2022-11-13T12:45:19;3.40;;;2.00;;
75682;SDS011;64295;44.772;39.872;2022-11-13T12:51:02;4.78;;;2.05;;
75682;SDS011;64295;44.772;39.872;2022-11-13T12:53:49;5.80;;;2.13;;
75682;SDS011;64295;44.772;39.872;2022-11-13T12:56:38;4.57;;;1.88;;
75682;SDS011;64295;44.772;39.872;2022-11-13T13:02:54;4.30;;;2.35;;
75682;SDS011;64295;44.772;39.872;2022-11-13T13:06:08;5.00;;;2.03;;
75682;SDS011;64295;44.772;39.872;2022-11-13T13:12:31;3.55;;;1.95;;
75682;SDS011;64295;44.772;39.872;2022-11-13T13:15:30;3.13;;;1.42;;
75682;SDS011;64295;44.772;39.872;2022-11-13T13:21:08;3.22;;;1.85;;
75682;SDS011;64295;44.772;39.872;2022-11-13T13:23:55;6.65;;;2.33;;
75682;SDS011;64295;44.772;39.872;2022-11-13T13:26:50;3.90;;;1.95;;
75682;SDS011;64295;44.772;39.872;2022-11-13T13:29:34;2.97;;;1.95;;
75682;SDS011;64295;44.772;39.872;2022-11-13T13:35:26;6.13;;;2.22;;
75682;SDS011;64295;44.772;39.872;2022-11-13T13:38:23;4.60;;;2.40;;
75682;SDS011;64295;44.772;39.872;2022-11-13T13:41:17;3.85;;;2.17;;
75682;SDS011;64295;44.772;39.872;2022-11-13T13:47:30;5.13;;;2.22;;
75682;SDS011;64295;44.772;39.872;2022-11-13T13:50:22;4.70;;;2.42;;
75682;SDS011;64295;44.772;39.872;2022-11-13T13:53:13;7.05;;;2.45;;
75682;SDS011;64295;44.772;39.872;2022-11-13T13:56:08;6.43;;;3.22;;
75682;SDS011;64295;44.772;39.872;2022-11-13T13:58:54;6.03;;;2.53;;
75682;SDS011;64295;44.772;39.872;2022-11-13T14:01:38;5.78;;;2.65;;
75682;SDS011;64295;44.772;39.872;2022-11-13T14:04:23;5.50;;;2.88;;
75682;SDS011;64295;44.772;39.872;2022-11-13T14:10:06;5.47;;;2.67;;
75682;SDS011;64295;44.772;39.872;2022-11-13T14:12:51;6.80;;;3.25;;
75682;SDS011;64295;44.772;39.872;2022-11-13T14:15:36;22.05;;;8.80;;
75682;SDS011;64295;44.772;39.872;2022-11-13T14:18:20;55.95;;;23.85;;
75682;SDS011;64295;44.772;39.872;2022-11-13T14:21:09;55.75;;;22.90;;
75682;SDS011;64295;44.772;39.872;2022-11-13T14:23:58;24.33;;;14.55;;
75682;SDS011;64295;44.772;39.872;2022-11-13T14:26:45;21.42;;;11.02;;
75682;SDS011;64295;44.772;39.872;2022-11-13T14:29:34;21.23;;;10.38;;
75682;SDS011;64295;44.772;39.872;2022-11-13T14:32:24;23.13;;;9.88;;
75682;SDS011;64295;44.772;39.872;2022-11-13T14:35:24;15.85;;;7.68;;
75682;SDS011;64295;44.772;39.872;2022-11-13T14:38:16;16.48;;;7.30;;
75682;SDS011;64295;44.772;39.872;2022-11-13T14:41:14;9.90;;;4.60;;
75682;SDS011;64295;44.772;39.872;2022-11-13T14:47:00;9.35;;;4.95;;
75682;SDS011;64295;44.772;39.872;2022-11-13T14:49:47;10.45;;;5.68;;
75682;SDS011;64295;44.772;39.872;2022-11-13T14:52:32;25.63;;;12.90;;
75682;SDS011;64295;44.772;39.872;2022-11-13T14:55:20;45.10;;;20.73;;
75682;SDS011;64295;44.772;39.872;2022-11-13T14:58:10;50.65;;;22.63;;
75682;SDS011;64295;44.772;39.872;2022-11-13T15:00:56;59.72;;;28.08;;
75682;SDS011;64295;44.772;39.872;2022-11-13T15:04:01;85.10;;;34.08;;
75682;SDS011;64295;44.772;39.872;2022-11-13T15:06:47;65.55;;;26.58;;
75682;SDS011;64295;44.772;39.872;2022-11-13T15:09:33;52.10;;;22.33;;
75682;SDS011;64295;44.772;39.872;2022-11-13T15:12:17;62.75;;;26.88;;
75682;SDS011;64295;44.772;39.872;2022-11-13T15:15:02;42.15;;;18.75;;
75682;SDS011;64295;44.772;39.872;2022-11-13T15:17:46;32.22;;;14.80;;
75682;SDS011;64295;44.772;39.872;2022-11-13T15:20:32;47.72;;;22.17;;
75682;SDS011;64295;44.772;39.872;2022-11-13T15:23:17;29.17;;;13.50;;
75682;SDS011;64295;44.772;39.872;2022-11-13T15:26:02;13.50;;;7.18;;
75682;SDS011;64295;44.772;39.872;2022-11-13T15:28:46;19.23;;;9.27;;
75682;SDS011;64295;44.772;39.872;2022-11-13T15:31:41;9.73;;;4.88;;
75682;SDS011;64295;44.772;39.872;2022-11-13T15:34:27;46.92;;;16.98;;
75682;SDS011;64295;44.772;39.872;2022-11-13T15:37:12;12.45;;;4.80;;
75682;SDS011;64295;44.772;39.872;2022-11-13T15:39:58;8.35;;;4.10;;
75682;SDS011;64295;44.772;39.872;2022-11-13T15:42:43;9.68;;;4.05;;
75682;SDS011;64295;44.772;39.872;2022-11-13T15:45:27;9.82;;;4.90;;
75682;SDS011;64295;44.772;39.872;2022-11-13T15:48:12;10.57;;;3.72;;
75682;SDS011;64295;44.772;39.872;2022-11-13T15:50:56;8.65;;;3.47;;
75682;SDS011;64295;44.772;39.872;2022-11-13T15:53:41;6.22;;;3.03;;
75682;SDS011;64295;44.772;39.872;2022-11-13T15:56:27;6.30;;;3.22;;
75682;SDS011;64295;44.772;39.872;2022-11-13T15:59:13;5.90;;;3.45;;
75682;SDS011;64295;44.772;39.872;2022-11-13T16:01:59;7.43;;;3.50;;
75682;SDS011;64295;44.772;39.872;2022-11-13T16:04:43;6.25;;;3.22;;
75682;SDS011;64295;44.772;39.872;2022-11-13T16:07:28;8.60;;;3.65;;
75682;SDS011;64295;44.772;39.872;2022-11-13T16:10:14;6.70;;;3.00;;
75682;SDS011;64295;44.772;39.872;2022-11-13T16:12:59;6.55;;;3.28;;
75682;SDS011;64295;44.772;39.872;2022-11-13T16:15:43;8.32;;;4.00;;
75682;SDS011;64295;44.772;39.872;2022-11-13T16:18:29;8.20;;;4.18;;
75682;SDS011;64295;44.772;39.872;2022-11-13T16:21:14;8.70;;;3.67;;
75682;SDS011;64295;44.772;39.872;2022-11-13T16:23:58;7.78;;;3.70;;
75682;SDS011;64295;44.772;39.872;2022-11-13T16:26:49;6.75;;;3.95;;
75682;SDS011;64295;44.772;39.872;2022-11-13T16:29:37;8.93;;;4.28;;
75682;SDS011;64295;44.772;39.872;2022-11-13T16:32:21;6.40;;;3.95;;
75682;SDS011;64295;44.772;39.872;2022-11-13T16:35:10;9.77;;;3.83;;
75682;SDS011;64295;44.772;39.872;2022-11-13T16:37:56;6.28;;;3.75;;
75682;SDS011;64295;44.772;39.872;2022-11-13T16:40:40;10.63;;;4.05;;
75682;SDS011;64295;44.772;39.872;2022-11-13T16:43:26;9.00;;;3.95;;
75682;SDS011;64295;44.772;39.872;2022-11-13T16:46:17;8.57;;;3.78;;
75682;SDS011;64295;44.772;39.872;2022-11-13T16:49:11;8.60;;;4.00;;
75682;SDS011;64295;44.772;39.872;2022-11-13T16:51:59;10.95;;;4.53;;
75682;SDS011;64295;44.772;39.872;2022-11-13T16:54:44;7.65;;;3.83;;
75682;SDS011;64295;44.772;39.872;2022-11-13T16:57:28;11.57;;;3.92;;
75682;SDS011;64295;44.772;39.872;2022-11-13T17:00:14;13.07;;;4.43;;
75682;SDS011;64295;44.772;39.872;2022-11-13T17:02:59;12.52;;;5.13;;
75682;SDS011;64295;44.772;39.872;2022-11-13T17:05:44;13.13;;;5.10;;
75682;SDS011;64295;44.772;39.872;2022-11-13T17:08:28;12.73;;;5.82;;
75682;SDS011;64295;44.772;39.872;2022-11-13T17:11:13;11.73;;;5.40;;
75682;SDS011;64295;44.772;39.872;2022-11-13T17:13:58;12.70;;;5.20;;
75682;SDS011;64295;44.772;39.872;2022-11-13T17:16:43;13.45;;;5.15;;
75682;SDS011;64295;44.772;39.872;2022-11-13T17:19:27;11.50;;;4.93;;
75682;SDS011;64295;44.772;39.872;2022-11-13T17:22:12;8.60;;;4.57;;
75682;SDS011;64295;44.772;39.872;2022-11-13T17:24:59;9.85;;;5.43;;
75682;SDS011;64295;44.772;39.872;2022-11-13T17:27:44;9.23;;;4.82;;
75682;SDS011;64295;44.772;39.872;2022-11-13T17:30:28;10.10;;;4.15;;
75682;SDS011;64295;44.772;39.872;2022-11-13T17:33:15;8.85;;;4.32;;
75682;SDS011;64295;44.772;39.872;2022-11-13T17:36:00;9.32;;;4.43;;
75682;SDS011;64295;44.772;39.872;2022-11-13T17:38:45;9.65;;;4.70;;
75682;SDS011;64295;44.772;39.872;2022-11-13T17:41:29;11.00;;;5.03;;
75682;SDS011;64295;44.772;39.872;2022-11-13T17:44:14;8.80;;;4.45;;
75682;SDS011;64295;44.772;39.872;2022-11-13T17:46:58;10.63;;;4.75;;
75682;SDS011;64295;44.772;39.872;2022-11-13T17:49:44;14.07;;;5.50;;
75682;SDS011;64295;44.772;39.872;2022-11-13T17:52:29;8.35;;;4.38;;